Time;durP1;ratioP1;P1;durP2;ratioP2;P2;SDS_P1;SDS_P2;PMS_P1;PMS_P2;Temp;Humidity;BMP_temperature;BMP_pressure;BME280_temperature;BME280_humidity;BME280_pressure;Samples;Min_cycle;Max_cycle;Signal;HPM_P1;HPM_P2
2022/04/01 00:00:10;;;;;;;5.50;4.10;;;;;;;2.38;80.03;100201.94;6245702;22;20004;-67
2022/04/01 00:02:36;;;;;;;4.53;3.60;;;;;;;2.33;80.36;100212.22;6245779;22;20004;-67
2022/04/01 00:05:02;;;;;;;8.02;3.67;;;;;;;2.32;80.72;100222.59;6245783;22;20000;-67
2022/04/01 00:07:28;;;;;;;6.22;4.00;;;;;;;2.31;80.54;100226.03;6245795;22;20004;-67
2022/04/01 00:09:54;;;;;;;5.13;3.70;;;;;;;2.35;80.77;100230.50;6245718;23;20027;-67
2022/04/01 00:12:19;;;;;;;5.13;3.95;;;;;;;2.33;80.53;100222.66;6245753;22;20000;-67
2022/04/01 00:14:45;;;;;;;5.80;3.75;;;;;;;2.31;80.45;100220.81;6243825;23;20032;-67
2022/04/01 00:17:10;;;;;;;4.60;3.63;;;;;;;2.29;80.98;100228.59;6244128;23;20444;-67
2022/04/01 00:19:36;;;;;;;5.05;3.58;;;;;;;2.19;80.97;100223.91;6246102;22;20000;-67
2022/04/01 00:22:01;;;;;;;7.53;3.85;;;;;;;2.09;81.07;100234.81;6245718;22;20439;-67
2022/04/01 00:24:28;;;;;;;4.70;3.40;;;;;;;2.02;81.17;100241.56;6245737;22;20062;-67
2022/04/01 00:26:54;;;;;;;4.82;3.60;;;;;;;1.93;81.82;100243.84;6245691;23;20000;-67
2022/04/01 00:29:20;;;;;;;5.25;3.60;;;;;;;1.91;82.20;100229.88;6245558;22;20054;-67
2022/04/01 00:31:49;;;;;;;5.50;3.58;;;;;;;1.96;82.20;100236.13;6245653;22;20084;-67
2022/04/01 00:34:16;;;;;;;4.55;3.25;;;;;;;1.97;82.05;100244.00;6245915;22;20075;-67
2022/04/01 00:36:46;;;;;;;5.43;3.58;;;;;;;1.96;82.03;100242.22;6245639;22;20425;-67
2022/04/01 00:39:14;;;;;;;5.63;3.70;;;;;;;1.85;82.07;100229.66;6245665;22;20011;-67
2022/04/01 00:41:40;;;;;;;4.97;3.40;;;;;;;1.96;82.32;100244.81;6245671;22;20004;-66
2022/04/01 00:44:26;;;;;;;6.18;3.85;;;;;;;1.97;81.75;100245.69;6245416;22;20004;-67
2022/04/01 00:46:56;;;;;;;5.95;3.60;;;;;;;1.98;82.28;100247.50;6272442;22;20015;-67
2022/04/01 00:49:23;;;;;;;5.43;3.33;;;;;;;1.97;81.91;100238.81;6277940;22;20014;-67
2022/04/01 00:51:50;;;;;;;5.50;3.72;;;;;;;1.97;82.05;100250.91;6250865;22;20062;-67
2022/04/01 00:54:16;;;;;;;6.28;3.55;;;;;;;1.91;81.86;100248.97;6277997;22;20325;-67
2022/04/01 00:56:43;;;;;;;5.75;3.58;;;;;;;1.89;82.75;100249.78;6277992;22;20007;-67
2022/04/01 00:59:10;;;;;;;5.85;3.65;;;;;;;1.94;82.35;100254.31;6278048;22;20010;-67
2022/04/01 01:01:36;;;;;;;4.93;3.28;;;;;;;1.93;82.25;100255.16;6277896;22;19999;-67
2022/04/01 01:04:07;;;;;;;7.30;3.88;;;;;;;1.87;82.33;100261.84;6278070;22;20058;-66
2022/04/01 01:06:37;;;;;;;4.85;3.38;;;;;;;1.92;82.55;100265.50;6278014;22;20003;-66
2022/04/01 01:09:03;;;;;;;4.93;3.45;;;;;;;1.95;82.31;100257.81;6278149;22;20057;-67
2022/04/01 01:11:29;;;;;;;4.70;3.50;;;;;;;1.90;82.61;100251.53;6250550;22;20007;-67
2022/04/01 01:13:54;;;;;;;5.22;3.38;;;;;;;1.90;82.56;100260.25;6277704;22;20487;-67
2022/04/01 01:16:20;;;;;;;5.53;3.20;;;;;;;1.85;82.07;100271.34;6277740;22;19999;-67
2022/04/01 01:19:11;;;;;;;6.88;3.42;;;;;;;1.83;82.75;100265.16;6250499;22;20003;-67
2022/04/01 01:21:38;;;;;;;5.15;3.42;;;;;;;1.80;82.91;100265.97;6277915;22;20007;-67
2022/04/01 01:24:08;;;;;;;4.95;3.60;;;;;;;1.77;82.31;100273.66;6277521;22;20027;-67
2022/04/01 01:26:36;;;;;;;5.30;3.08;;;;;;;1.79;83.08;100261.56;6277727;22;20015;-66
2022/04/01 01:29:04;;;;;;;5.25;3.25;;;;;;;1.79;82.71;100261.56;6277675;22;19996;-67
2022/04/01 01:31:30;;;;;;;4.55;3.05;;;;;;;1.83;82.97;100267.78;6277697;22;20329;-66
2022/04/01 01:33:57;;;;;;;4.50;3.33;;;;;;;1.83;82.16;100260.84;6277589;22;20415;-66
2022/04/01 01:36:25;;;;;;;4.55;3.33;;;;;;;1.85;82.31;100266.13;6277604;22;20340;-67
2022/04/01 01:38:51;;;;;;;5.07;3.40;;;;;;;1.78;82.25;100266.72;6277503;22;20333;-66
2022/04/01 01:41:16;;;;;;;4.95;3.25;;;;;;;1.77;82.88;100268.44;6277335;22;20003;-67
2022/04/01 01:43:42;;;;;;;4.75;3.00;;;;;;;1.78;83.14;100265.00;6277453;22;20007;-66
2022/04/01 01:46:08;;;;;;;5.10;3.05;;;;;;;1.79;82.46;100271.09;6277081;22;20012;-67
2022/04/01 01:48:34;;;;;;;5.45;3.58;;;;;;;1.77;82.30;100265.84;6277460;22;20004;-67
2022/04/01 01:56:27;;;;;;;8.30;3.50;;;;;;;1.69;82.66;100282.91;6277485;22;20015;-66
2022/04/01 01:58:54;;;;;;;4.85;3.40;;;;;;;1.66;82.65;100288.00;6276992;22;20325;-67
2022/04/01 02:01:20;;;;;;;7.00;3.55;;;;;;;1.62;82.69;100273.06;6277253;22;20008;-66
2022/04/01 02:03:45;;;;;;;4.30;3.28;;;;;;;1.67;83.22;100287.16;6277126;22;20053;-67
2022/04/01 02:06:11;;;;;;;4.75;3.42;;;;;;;1.70;82.89;100287.28;6277528;22;20063;-66
2022/04/01 02:08:36;;;;;;;5.65;3.40;;;;;;;1.70;82.54;100287.28;6277204;22;20000;-67
2022/04/01 02:11:02;;;;;;;7.07;3.30;;;;;;;1.68;82.99;100281.13;6277229;22;20059;-67
2022/04/01 02:13:29;;;;;;;4.75;3.20;;;;;;;1.68;82.80;100278.53;6277100;22;20014;-66
2022/04/01 02:15:55;;;;;;;5.15;3.60;;;;;;;1.72;82.65;100283.03;6277227;22;20061;-66
2022/04/01 02:18:21;;;;;;;8.30;3.40;;;;;;;1.77;82.50;100286.69;6277134;22;20000;-66
2022/04/01 02:20:50;;;;;;;6.68;3.60;;;;;;;1.75;82.86;100291.81;6277004;22;20006;-67
2022/04/01 02:23:16;;;;;;;5.07;3.47;;;;;;;1.79;82.69;100295.41;6277049;22;20336;-66
2022/04/01 02:25:43;;;;;;;4.97;3.25;;;;;;;1.76;82.71;100292.72;6277295;22;20000;-66
2022/04/01 02:28:09;;;;;;;6.38;4.35;;;;;;;1.72;82.95;100302.13;6277171;22;20000;-66
2022/04/01 02:30:35;;;;;;;3.95;3.13;;;;;;;1.67;82.84;100295.88;6277119;22;20000;-66
2022/04/01 02:33:02;;;;;;;4.20;3.38;;;;;;;1.66;82.60;100298.41;6277052;22;20010;-66
2022/04/01 02:35:29;;;;;;;4.50;3.53;;;;;;;1.67;83.59;100305.38;6276736;22;20034;-66
2022/04/01 02:37:55;;;;;;;4.53;3.58;;;;;;;1.65;82.98;100307.06;6276960;22;20007;-66
2022/04/01 02:40:22;;;;;;;4.68;3.30;;;;;;;1.67;83.35;100302.78;6277028;22;20004;-66
2022/04/01 02:42:53;;;;;;;4.97;3.80;;;;;;;1.65;82.51;100304.44;6276949;22;20082;-67
2022/04/01 02:45:19;;;;;;;5.53;3.30;;;;;;;1.63;83.07;100308.72;6276391;22;20015;-66
2022/04/01 02:47:44;;;;;;;4.63;3.65;;;;;;;1.58;82.69;100310.25;6276972;22;20246;-67
2022/04/01 02:50:10;;;;;;;4.43;3.40;;;;;;;1.64;82.96;100305.28;6276574;22;20082;-67
2022/04/01 02:52:36;;;;;;;4.80;3.75;;;;;;;1.66;82.87;100316.63;6276851;22;20070;-67
2022/04/01 02:55:01;;;;;;;6.13;3.70;;;;;;;1.60;82.34;100312.09;6276736;22;20079;-66
2022/04/01 02:57:28;;;;;;;7.22;3.70;;;;;;;1.64;82.84;100328.72;6276601;22;20004;-66
2022/04/01 02:59:54;;;;;;;4.90;3.83;;;;;;;1.63;82.38;100330.44;6277212;22;20061;-66
2022/04/01 03:02:19;;;;;;;6.15;3.70;;;;;;;1.63;82.54;100329.56;6277998;22;20004;-66
2022/04/01 03:04:45;;;;;;;4.80;3.75;;;;;;;1.56;82.66;100336.22;6278734;22;20019;-66
2022/04/01 03:07:10;;;;;;;4.70;3.83;;;;;;;1.57;82.91;100335.41;6280121;22;20004;-66
2022/04/01 03:09:35;;;;;;;8.25;3.78;;;;;;;1.58;82.86;100336.28;6276689;22;20336;-66
2022/04/01 03:12:01;;;;;;;5.18;4.00;;;;;;;1.63;82.84;100347.78;6276785;22;20014;-66
2022/04/01 03:14:27;;;;;;;5.13;4.10;;;;;;;1.64;82.11;100345.22;6276839;22;20000;-66
2022/04/01 03:16:53;;;;;;;5.18;4.28;;;;;;;1.60;82.22;100342.47;6249596;22;20014;-66
2022/04/01 03:19:19;;;;;;;6.07;4.47;;;;;;;1.66;81.89;100353.09;6276338;22;20008;-66
2022/04/01 03:21:45;;;;;;;5.53;4.40;;;;;;;1.65;82.01;100348.72;6276428;22;20010;-66
2022/04/01 03:24:11;;;;;;;5.28;4.47;;;;;;;1.61;82.04;100354.63;6276473;22;19999;-66
2022/04/01 03:26:39;;;;;;;6.80;4.80;;;;;;;1.60;82.69;100352.88;6277075;22;20073;-66
2022/04/01 03:29:08;;;;;;;7.95;4.65;;;;;;;1.62;82.54;100357.28;6276428;22;20011;-66
2022/04/01 03:31:35;;;;;;;7.28;4.85;;;;;;;1.61;82.22;100363.34;6276739;22;20008;-66
2022/04/01 03:34:01;;;;;;;6.55;4.85;;;;;;;1.60;82.35;100366.78;6276625;22;20000;-66
2022/04/01 03:36:26;;;;;;;6.72;5.05;;;;;;;1.60;82.34;100365.88;6276419;22;20061;-66
2022/04/01 03:38:52;;;;;;;5.88;4.85;;;;;;;1.52;82.41;100368.19;6276603;22;20165;-66
2022/04/01 03:41:19;;;;;;;7.95;5.30;;;;;;;1.49;82.58;100373.25;6276936;22;20439;-66
2022/04/01 03:43:45;;;;;;;6.70;4.97;;;;;;;1.43;83.64;100370.44;6276404;22;20416;-66
2022/04/01 03:46:17;;;;;;;7.82;4.57;;;;;;;1.41;83.68;100373.00;6276149;22;20016;-66
2022/04/01 03:48:52;;;;;;;6.00;4.63;;;;;;;1.52;83.99;100378.59;6276508;22;20000;-65
2022/04/01 03:51:24;;;;;;;5.55;4.38;;;;;;;1.54;83.35;100381.25;6276473;22;20440;-65
2022/04/01 03:54:04;;;;;;;;;;;;;;;1.60;83.34;100379.78;6276920;22;20010;-66
2022/04/01 03:56:37;;;;;;;6.68;4.50;;;;;;;1.48;83.55;100379.31;6276507;22;19930;-66
2022/04/01 03:59:09;;;;;;;8.90;4.60;;;;;;;1.50;83.15;100390.69;6276343;22;20072;-66
2022/04/01 04:01:35;;;;;;;;;;;;;;;1.48;83.49;100388.00;6276651;22;20069;-66
2022/04/01 04:04:01;;;;;;;9.00;4.68;;;;;;;1.42;83.18;100394.69;6276419;22;20312;-66
2022/04/01 04:06:27;;;;;;;5.22;4.10;;;;;;;1.41;83.68;100399.03;6276291;22;20053;-65
2022/04/01 04:08:57;;;;;;;5.32;4.40;;;;;;;1.40;83.63;100397.22;6276553;22;20008;-66
2022/04/01 04:11:31;;;;;;;6.32;4.40;;;;;;;1.38;84.17;100404.09;6276399;22;20049;-66
2022/04/01 04:13:58;;;;;;;6.88;4.88;;;;;;;1.39;83.85;100400.66;6248967;22;20027;-66
2022/04/01 04:16:39;;;;;;;6.10;4.68;;;;;;;1.37;83.43;100415.34;6276190;22;20079;-66
2022/04/01 04:19:25;;;;;;;7.03;4.93;;;;;;;1.34;83.74;100417.81;6276568;22;20042;-66
2022/04/01 04:22:03;;;;;;;6.38;4.40;;;;;;;1.29;84.20;100424.56;6277197;22;20007;-66
2022/04/01 04:24:41;;;;;;;5.45;4.32;;;;;;;1.36;83.46;100428.28;6278077;22;20000;-66
2022/04/01 04:27:29;;;;;;;5.68;4.40;;;;;;;1.31;83.83;100432.41;6278166;22;20004;-66
2022/04/01 04:30:05;;;;;;;6.55;4.30;;;;;;;1.33;84.14;100431.66;6275800;22;20011;-66
2022/04/01 04:32:38;;;;;;;7.18;4.43;;;;;;;1.29;83.59;100432.34;6278160;22;20325;-66
2022/04/01 04:35:07;;;;;;;5.47;4.22;;;;;;;1.28;83.90;100442.69;6277900;22;20015;-66
2022/04/01 04:37:35;;;;;;;5.78;4.55;;;;;;;1.28;84.08;100440.06;6278092;22;20134;-66
2022/04/01 04:40:02;;;;;;;5.85;4.47;;;;;;;1.26;83.89;100445.22;6278080;22;20004;-66
2022/04/01 04:42:30;;;;;;;5.88;4.60;;;;;;;1.20;83.98;100450.16;6277974;22;20031;-66
2022/04/01 04:44:59;;;;;;;7.55;4.90;;;;;;;1.21;84.34;100458.06;6278134;22;20079;-66
2022/04/01 04:47:32;;;;;;;6.40;5.03;;;;;;;1.19;84.20;100457.09;6250671;22;20306;-66
2022/04/01 04:49:58;;;;;;;7.03;4.60;;;;;;;1.20;84.13;100465.78;6277878;22;20015;-66
2022/04/01 04:52:32;;;;;;;6.35;4.65;;;;;;;1.17;84.25;100457.88;6277897;22;20057;-66
2022/04/01 04:54:59;;;;;;;6.53;4.85;;;;;;;1.24;83.66;100455.59;6278012;22;20000;-66
2022/04/01 04:57:26;;;;;;;7.03;4.80;;;;;;;1.23;83.75;100472.00;6277939;22;20074;-67
2022/04/01 04:59:55;;;;;;;6.72;4.88;;;;;;;1.27;82.92;100470.44;6277838;22;20007;-65
2022/04/01 05:03:06;;;;;;;5.80;4.45;;;;;;;1.40;83.21;100485.72;6277561;22;20007;-68
2022/04/01 05:05:46;;;;;;;5.82;4.63;;;;;;;1.45;82.32;100492.00;6278158;22;20007;-65
2022/04/01 05:08:31;;;;;;;5.47;4.38;;;;;;;1.47;82.48;100498.19;6277814;22;20023;-65
2022/04/01 05:10:56;;;;;;;5.22;3.92;;;;;;;1.43;81.60;100498.00;6277661;22;20070;-65
2022/04/01 05:13:50;;;;;;;6.75;4.32;;;;;;;1.49;82.13;100503.44;6278041;22;20046;-65
2022/04/01 05:16:25;;;;;;;5.55;4.28;;;;;;;1.46;80.88;100516.34;6277881;22;20333;-65
2022/04/01 05:19:01;;;;;;;7.20;4.68;;;;;;;1.35;81.19;100517.59;6278047;22;20079;-65
2022/04/01 05:21:37;;;;;;;6.63;4.45;;;;;;;1.37;81.50;100516.84;6277508;22;20003;-65
2022/04/01 05:24:07;;;;;;;5.90;3.92;;;;;;;1.40;81.88;100526.50;6278041;22;20018;-65
2022/04/01 05:26:45;;;;;;;5.57;4.30;;;;;;;1.39;81.32;100522.13;6277577;22;20368;-65
2022/04/01 05:29:18;;;;;;;7.15;5.05;;;;;;;1.36;81.21;100520.25;6277698;22;20366;-65
2022/04/01 05:31:51;;;;;;;;;;;;;;;1.39;nan;100532.53;6277969;22;20436;-65
2022/04/01 05:34:40;;;;;;;6.25;4.38;;;;;;;1.42;81.12;100527.47;6277551;22;19934;-65
2022/04/01 05:37:07;;;;;;;7.93;4.72;;;;;;;1.42;80.79;100543.97;6277935;22;20003;-65
2022/04/01 05:39:38;;;;;;;5.80;4.65;;;;;;;1.36;80.31;100532.38;6277583;22;20007;-65
2022/04/01 05:42:06;;;;;;;7.47;4.18;;;;;;;1.36;80.26;100541.09;6277475;22;20340;-65
2022/04/01 05:44:42;;;;;;;6.80;4.70;;;;;;;1.43;80.43;100540.53;6277631;22;20008;-65
2022/04/01 05:47:07;;;;;;;10.13;5.10;;;;;;;1.38;79.98;100551.59;6275168;22;20072;-65
2022/04/01 05:49:40;;;;;;;6.15;4.57;;;;;;;1.26;80.54;100536.31;6277687;22;20039;-65
2022/04/01 05:52:08;;;;;;;6.82;4.88;;;;;;;1.31;80.07;100563.44;6250301;22;20088;-65
2022/04/01 05:54:35;;;;;;;5.40;4.47;;;;;;;1.31;80.59;100573.84;6277387;22;20006;-65
2022/04/01 05:57:03;;;;;;;7.07;4.72;;;;;;;1.24;80.30;100572.69;6277484;22;20063;-65
2022/04/01 05:59:29;;;;;;;7.65;5.07;;;;;;;1.32;80.47;100574.72;6277588;22;20011;-65
2022/04/01 06:02:07;;;;;;;6.63;4.43;;;;;;;1.38;80.14;100575.91;6277078;22;20476;-65
2022/04/01 06:04:54;;;;;;;6.28;4.40;;;;;;;1.36;79.86;100589.66;6277101;22;20052;-65
2022/04/01 06:07:37;;;;;;;5.95;4.38;;;;;;;1.33;79.92;100580.03;6277182;22;20037;-65
2022/04/01 06:10:11;;;;;;;6.72;4.32;;;;;;;1.34;79.69;100593.91;6276972;22;20022;-65
2022/04/01 06:13:14;;;;;;;6.13;4.70;;;;;;;1.31;80.57;100594.66;6276312;22;20110;-65
2022/04/01 06:16:10;;;;;;;7.28;4.68;;;;;;;1.27;80.82;100607.47;6276585;22;20032;-65
2022/04/01 06:18:50;;;;;;;12.13;4.60;;;;;;;1.20;80.51;100612.44;6276105;22;20328;-65
2022/04/01 06:21:22;;;;;;;7.65;4.88;;;;;;;1.22;80.44;100612.47;6276532;22;20004;-65
2022/04/01 06:24:08;;;;;;;7.88;4.57;;;;;;;1.29;81.01;100622.34;6276239;22;20055;-65
2022/04/01 06:26:39;;;;;;;6.20;4.25;;;;;;;1.33;79.55;100619.06;6276303;22;20011;-65
2022/04/01 06:29:31;;;;;;;5.55;4.05;;;;;;;1.47;79.71;100627.47;6249067;22;20363;-65
2022/04/01 06:32:06;;;;;;;6.68;4.30;;;;;;;1.40;79.13;100633.22;6276131;22;20428;-65
2022/04/01 06:35:02;;;;;;;6.45;4.18;;;;;;;1.43;79.76;100633.38;6275943;22;20015;-65
2022/04/01 06:37:32;;;;;;;6.18;3.85;;;;;;;1.34;78.81;100648.59;6276167;22;19999;-65
2022/04/01 06:40:04;;;;;;;7.40;4.18;;;;;;;1.33;79.10;100655.50;6275860;22;20007;-65
2022/04/01 06:42:31;;;;;;;5.07;3.60;;;;;;;1.31;78.36;100651.03;6276154;22;20087;-65
2022/04/01 06:44:58;;;;;;;6.80;4.10;;;;;;;1.27;79.71;100656.94;6275512;22;20011;-65
2022/04/01 06:47:23;;;;;;;7.35;4.32;;;;;;;1.24;78.44;100665.47;6275358;22;20012;-65
2022/04/01 06:49:54;;;;;;;6.65;4.18;;;;;;;1.28;79.14;100674.31;6275932;22;20079;-65
2022/04/01 06:52:20;;;;;;;6.40;3.58;;;;;;;1.30;79.16;100680.50;6275913;22;20004;-65
2022/04/01 06:54:46;;;;;;;5.85;3.90;;;;;;;1.32;79.16;100671.03;6275858;22;20386;-65
2022/04/01 06:57:12;;;;;;;6.38;3.78;;;;;;;1.34;78.21;100677.22;6275667;22;20397;-65
2022/04/01 06:59:37;;;;;;;6.03;3.70;;;;;;;1.30;78.53;100675.31;6248639;22;20042;-65
2022/04/01 07:02:03;;;;;;;7.63;3.55;;;;;;;1.28;78.44;100680.41;6275295;22;20010;-65
2022/04/01 07:04:29;;;;;;;4.90;3.60;;;;;;;1.29;78.99;100687.44;6275655;22;20011;-65
2022/04/01 07:06:55;;;;;;;6.15;3.60;;;;;;;1.32;79.16;100681.44;6275688;22;20015;-65
2022/04/01 07:09:22;;;;;;;5.75;3.60;;;;;;;1.35;78.78;100700.72;6275779;22;20058;-65
2022/04/01 07:11:48;;;;;;;5.35;3.60;;;;;;;1.34;78.20;100703.25;6275290;22;20027;-65
2022/04/01 07:14:14;;;;;;;13.85;6.63;;;;;;;1.35;78.56;100699.81;6275557;22;20042;-65
2022/04/01 07:16:39;;;;;;;6.18;4.10;;;;;;;1.40;78.07;100695.69;6248151;22;20003;-66
2022/04/01 07:19:06;;;;;;;5.53;3.20;;;;;;;1.41;78.39;100703.59;6275501;22;20365;-65
2022/04/01 07:21:34;;;;;;;8.10;4.00;;;;;;;1.46;78.41;100706.41;6275443;22;20004;-65
2022/04/01 07:24:01;;;;;;;5.40;3.67;;;;;;;1.50;78.63;100711.81;6275453;22;20010;-65
2022/04/01 07:26:27;;;;;;;7.97;3.95;;;;;;;1.53;78.12;100707.56;6275578;22;20138;-65
2022/04/01 07:28:54;;;;;;;8.07;4.00;;;;;;;1.51;77.74;100707.50;6275682;22;20358;-65
2022/04/01 07:34:06;;;;;;;5.75;3.50;;;;;;;1.52;77.35;100719.69;6275417;22;20087;-65
2022/04/01 07:36:31;;;;;;;8.32;4.43;;;;;;;1.49;78.04;100720.44;6275633;22;20031;-65
2022/04/01 07:38:57;;;;;;;12.93;4.45;;;;;;;1.47;77.43;100721.19;6275303;22;20007;-65
2022/04/01 07:41:22;;;;;;;5.50;3.63;;;;;;;1.45;77.65;100730.63;6275481;22;20045;-65
2022/04/01 07:43:48;;;;;;;8.68;4.63;;;;;;;1.46;77.40;100730.72;6275125;22;20007;-65
2022/04/01 07:46:14;;;;;;;6.70;3.63;;;;;;;1.47;77.98;100736.81;6274996;22;20138;-65
2022/04/01 07:48:39;;;;;;;7.43;3.40;;;;;;;1.46;77.90;100743.75;6275319;22;20035;-65
2022/04/01 07:51:05;;;;;;;6.10;3.50;;;;;;;1.45;77.38;100739.34;6275174;22;19999;-65
2022/04/01 07:53:30;;;;;;;6.63;3.30;;;;;;;1.49;77.46;100736.06;6275675;22;20015;-65
2022/04/01 07:55:55;;;;;;;7.53;3.40;;;;;;;1.55;77.41;100748.47;6276044;22;20027;-65
2022/04/01 07:58:21;;;;;;;6.43;3.58;;;;;;;1.53;77.67;100757.91;6277236;22;20000;-65
2022/04/01 08:00:47;;;;;;;5.13;3.50;;;;;;;1.54;77.45;100758.81;6277362;22;20023;-65
2022/04/01 08:03:12;;;;;;;4.97;3.63;;;;;;;1.58;77.92;100756.41;6277242;22;20437;-65
2022/04/01 08:05:38;;;;;;;6.30;4.00;;;;;;;1.56;77.93;100751.97;6277213;22;20004;-65
2022/04/01 08:08:03;;;;;;;5.50;3.45;;;;;;;1.63;77.36;100757.53;6277556;22;20075;-65
2022/04/01 08:10:29;;;;;;;5.22;3.50;;;;;;;1.56;77.67;100754.56;6277405;22;20100;-65
2022/04/01 08:12:55;;;;;;;8.75;3.72;;;;;;;1.62;77.66;100767.84;6277331;22;20004;-65
2022/04/01 08:15:20;;;;;;;7.60;3.78;;;;;;;1.65;77.78;100768.91;6277106;22;20011;-65
2022/04/01 08:17:46;;;;;;;5.75;3.40;;;;;;;1.65;77.26;100778.44;6276889;22;20361;-65
2022/04/01 08:20:12;;;;;;;4.97;3.20;;;;;;;1.64;77.63;100782.75;6277390;22;20000;-65
2022/04/01 08:22:38;;;;;;;5.30;3.30;;;;;;;1.64;76.91;100785.34;6277002;22;20015;-65
2022/04/01 08:25:05;;;;;;;5.85;3.38;;;;;;;1.67;77.52;100781.97;6277291;22;20008;-65
2022/04/01 08:27:30;;;;;;;4.65;3.35;;;;;;;1.66;77.24;100796.72;6277205;22;20003;-65
2022/04/01 08:29:59;;;;;;;6.10;3.80;;;;;;;1.70;76.94;100790.81;6277190;22;20470;-65
2022/04/01 08:32:26;;;;;;;6.00;3.30;;;;;;;1.69;76.57;100806.41;6276643;22;20031;-65
2022/04/01 08:34:52;;;;;;;7.00;3.05;;;;;;;1.68;76.35;100802.00;6249633;22;20015;-65
2022/04/01 08:37:18;;;;;;;6.30;3.20;;;;;;;1.74;77.03;100804.88;6276751;22;20008;-65
2022/04/01 08:39:43;;;;;;;6.57;3.90;;;;;;;1.70;77.14;100808.16;6249722;22;20340;-65
2022/04/01 08:42:09;;;;;;;4.90;3.15;;;;;;;1.68;75.96;100813.31;6276767;22;20010;-65
2022/04/01 08:44:41;;;;;;;7.38;2.97;;;;;;;1.68;75.18;100813.31;6249579;22;20004;-65
2022/04/01 08:47:10;;;;;;;4.25;2.72;;;;;;;1.68;75.57;100820.25;6276357;22;20015;-66
2022/04/01 08:49:36;;;;;;;6.53;3.00;;;;;;;1.67;75.49;100831.47;6276727;22;20053;-65
2022/04/01 08:52:06;;;;;;;5.30;2.55;;;;;;;1.73;74.45;100832.66;6276897;22;20031;-65
2022/04/01 08:54:33;;;;;;;6.20;2.58;;;;;;;1.80;75.38;100841.66;6276768;22;20015;-65
2022/04/01 08:56:59;;;;;;;4.47;2.78;;;;;;;1.87;75.62;100843.69;6276553;22;20061;-65
2022/04/01 08:59:31;;;;;;;5.93;3.17;;;;;;;1.92;74.46;100838.69;6276941;22;20066;-64
2022/04/01 09:02:08;;;;;;;4.23;2.70;;;;;;;2.00;75.06;100850.34;6276646;22;20444;-65
2022/04/01 09:04:33;;;;;;;5.20;2.75;;;;;;;2.13;74.58;100852.69;6276653;22;20071;-65
2022/04/01 09:07:19;;;;;;;4.72;2.80;;;;;;;2.18;74.07;100858.97;6276590;22;20075;-65
2022/04/01 09:09:45;;;;;;;4.85;2.70;;;;;;;2.18;73.10;100855.50;6276739;22;20058;-65
2022/04/01 09:12:19;;;;;;;5.10;2.67;;;;;;;2.14;73.34;100857.09;6276857;22;20007;-66
2022/04/01 09:14:53;;;;;;;4.10;2.75;;;;;;;2.11;74.13;100862.16;6276725;22;20035;-65
2022/04/01 09:17:19;;;;;;;6.63;2.88;;;;;;;2.16;74.63;100872.78;6276878;22;20000;-65
2022/04/01 09:19:44;;;;;;;4.75;2.97;;;;;;;2.20;75.11;100873.00;6276647;22;20008;-65
2022/04/01 09:22:24;;;;;;;5.03;3.42;;;;;;;2.29;75.34;100869.91;6275077;22;20030;-65
2022/04/01 09:24:55;;;;;;;6.13;3.17;;;;;;;2.33;74.79;100856.19;6276574;22;20475;-65
2022/04/01 09:27:42;;;;;;;6.32;3.05;;;;;;;2.44;74.49;100874.88;6276495;22;20079;-65
2022/04/01 09:30:14;;;;;;;4.28;2.90;;;;;;;2.47;73.81;100877.63;6276231;22;20078;-65
2022/04/01 09:32:44;;;;;;;6.72;3.08;;;;;;;2.37;72.46;100872.84;6249326;22;20392;-65
2022/04/01 09:35:11;;;;;;;6.75;2.95;;;;;;;2.39;73.83;100879.91;6276237;22;20065;-65
2022/04/01 09:37:47;;;;;;;5.75;3.00;;;;;;;2.40;74.17;100871.28;6276359;22;20007;-65
2022/04/01 09:40:25;;;;;;;4.43;2.83;;;;;;;2.51;74.19;100892.59;6276575;22;20004;-65
2022/04/01 09:42:58;;;;;;;6.90;3.13;;;;;;;2.56;73.87;100880.63;6276357;22;20087;-65
2022/04/01 09:45:24;;;;;;;;;;;;;;;2.67;73.83;100881.13;6276914;22;20007;-65
2022/04/01 09:48:02;;;;;;;5.97;3.00;;;;;;;2.61;73.14;100879.16;6276370;22;19907;-65
2022/04/01 09:50:33;;;;;;;3.63;2.38;;;;;;;2.65;72.76;100893.19;6276851;22;20103;-66
2022/04/01 09:53:11;;;;;;;6.28;3.10;;;;;;;2.67;73.40;100888.94;6276150;22;20050;-66
2022/04/01 09:55:38;;;;;;;3.70;2.47;;;;;;;2.67;73.10;100889.84;6276726;22;20003;-66
2022/04/01 09:58:05;;;;;;;6.90;3.30;;;;;;;2.74;73.10;100884.06;6276089;22;20003;-65
2022/04/01 10:00:31;;;;;;;7.22;2.90;;;;;;;2.84;73.10;100893.16;6276358;22;20011;-66
2022/04/01 10:02:58;;;;;;;5.95;2.80;;;;;;;2.80;72.65;100891.25;6275823;22;20298;-65
2022/04/01 10:05:25;;;;;;;6.38;2.85;;;;;;;2.79;72.13;100888.59;6277299;22;20011;-65
2022/04/01 10:07:53;;;;;;;6.10;2.95;;;;;;;2.80;72.91;100895.59;6278096;22;20098;-66
2022/04/01 10:10:19;;;;;;;6.90;2.95;;;;;;;2.73;73.20;100891.81;6278677;22;19999;-65
2022/04/01 10:12:47;;;;;;;6.28;2.97;;;;;;;2.78;72.74;100894.59;6276090;22;20007;-65
2022/04/01 10:15:14;;;;;;;6.70;3.90;;;;;;;2.75;72.32;100898.00;6248468;22;20007;-65
2022/04/01 10:17:41;;;;;;;8.18;3.30;;;;;;;2.74;72.95;100891.91;6276109;22;20008;-65
2022/04/01 10:20:08;;;;;;;5.47;2.88;;;;;;;2.80;73.46;100893.88;6275437;22;20011;-66
2022/04/01 10:22:37;;;;;;;6.55;2.90;;;;;;;2.88;73.39;100897.69;6276467;22;20003;-65
2022/04/01 10:25:20;;;;;;;4.63;2.53;;;;;;;2.91;73.43;100900.44;6275826;22;20324;-65
2022/04/01 10:27:51;;;;;;;4.43;2.50;;;;;;;2.88;72.64;100891.59;6276021;22;20071;-65
2022/04/01 10:30:23;;;;;;;5.15;2.80;;;;;;;2.89;71.51;100890.75;6275544;22;20015;-65
2022/04/01 10:32:49;;;;;;;8.95;3.67;;;;;;;2.92;72.56;100902.22;6248960;22;19999;-65
2022/04/01 10:35:24;;;;;;;2.95;2.28;;;;;;;2.96;71.82;100904.13;6275626;22;20060;-65
2022/04/01 10:38:17;;;;;;;5.30;2.60;;;;;;;2.94;71.25;100908.38;6276291;22;19999;-64
2022/04/01 10:40:51;;;;;;;4.53;2.83;;;;;;;2.88;70.85;100905.53;5109861;27;1422614;-64
2022/04/01 10:43:29;;;;;;;3.70;2.50;;;;;;;2.82;71.29;100896.53;5130959;27;20031;-64
2022/04/01 10:46:10;;;;;;;6.38;2.88;;;;;;;2.83;70.68;100908.78;5130800;27;20028;-64
2022/04/01 10:51:38;;;;;;;4.75;3.22;;;;;;;2.84;70.74;100908.81;5130847;28;20384;-65
2022/04/01 10:54:06;;;;;;;5.88;2.80;;;;;;;2.90;70.63;100914.28;5131215;27;20023;-65
2022/04/01 10:56:36;;;;;;;6.45;3.00;;;;;;;2.95;71.04;100909.25;5133155;27;20031;-64
2022/04/01 10:59:19;;;;;;;6.28;3.20;;;;;;;3.00;70.81;100916.47;5130150;28;20388;-64
2022/04/01 11:01:57;;;;;;;6.57;3.33;;;;;;;2.98;71.78;100923.34;5131377;27;20028;-65
2022/04/01 11:04:23;;;;;;;4.57;3.08;;;;;;;3.06;72.15;100918.44;5131289;28;20051;-64
2022/04/01 11:07:01;;;;;;;5.13;3.42;;;;;;;3.06;71.45;100928.00;5131018;27;20028;-64
2022/04/01 11:09:44;;;;;;;6.45;3.83;;;;;;;3.01;69.97;100930.44;5130397;27;20028;-64
2022/04/01 11:12:19;;;;;;;7.53;3.70;;;;;;;3.01;69.88;100928.69;5130061;27;20033;-64
2022/04/01 11:15:09;;;;;;;7.95;3.40;;;;;;;3.09;70.27;100928.16;5130224;28;20031;-64
2022/04/01 11:17:34;;;;;;;6.18;3.55;;;;;;;3.00;69.95;100932.16;5046752;28;20068;-64
2022/04/01 11:20:04;;;;;;;5.93;3.30;;;;;;;3.00;69.86;100937.38;5047036;28;20065;-64
2022/04/01 11:22:45;;;;;;;6.30;3.50;;;;;;;2.95;70.41;100937.97;5046813;28;20037;-64
2022/04/01 11:25:24;;;;;;;5.78;3.67;;;;;;;2.95;70.33;100935.38;5047187;28;20040;-64
2022/04/01 11:28:06;;;;;;;7.38;3.67;;;;;;;2.95;70.47;100946.69;5046911;28;20441;-64
2022/04/01 11:30:41;;;;;;;6.80;3.80;;;;;;;2.95;70.39;100940.59;5046829;28;20132;-63
2022/04/01 11:33:15;;;;;;;5.05;3.67;;;;;;;2.89;69.32;100940.34;5046716;28;20029;-63
2022/04/01 11:35:45;;;;;;;7.57;3.75;;;;;;;2.90;70.48;100943.00;5046763;28;20038;-63
2022/04/01 11:38:15;;;;;;;7.30;3.75;;;;;;;2.93;70.34;100944.88;5047093;28;20422;-63
2022/04/01 11:40:42;;;;;;;6.40;3.90;;;;;;;2.92;69.78;100946.59;5046332;28;20056;-64
2022/04/01 11:43:15;;;;;;;4.93;3.70;;;;;;;2.92;70.28;100943.09;5047079;28;20040;-63
2022/04/01 11:45:57;;;;;;;6.05;3.75;;;;;;;2.99;70.72;100945.13;5046379;28;20453;-63
2022/04/01 11:48:27;;;;;;;6.60;3.97;;;;;;;3.04;70.48;100942.69;5046589;28;20141;-63
2022/04/01 11:51:00;;;;;;;8.05;4.60;;;;;;;3.06;69.15;100946.28;5040530;28;20041;-63
2022/04/01 11:53:32;;;;;;;9.00;4.35;;;;;;;3.10;69.43;100940.38;5037181;28;20064;-63
2022/04/01 11:56:00;;;;;;;7.47;4.15;;;;;;;3.12;70.05;100943.91;5115832;28;20570;-63
2022/04/01 11:58:27;;;;;;;5.25;3.63;;;;;;;3.11;70.35;100948.25;5116017;28;20020;-62